Healing Springs, Virginia
Current Conditions -  °F | °C
As of 10:55 PM on Thursday 18 Dec 2014 (Local Time) from KHSP Reporting Station
Scattered Clouds Scattered Clouds  
Wind Chill: 15°   Ceiling: Unl
Heat Index: 25°   Visibility: 10mi
Dew Point: 17°   Wind: 12mph
Humidity: 72%   Direction: 280°W
Pressure: 29.96"   Gusts: NA
Location:  37.9738°N, 79.8988°W
Report Text: KHSP 190355Z AUTO 28010KT 10SM SCT065 M04/M08 A2996 RMK AO2 T10371081
Loading
Personal Weather Stations






























Interactive Weather Map New forecast layout! Learn more

10-Day Weather Forecast

Advertisements
Track Severe Weather on mobile